sensor_id;sensor_type;location;lat;lon;timestamp;P1;durP1;ratioP1;P2;durP2;ratioP2
32228;SDS011;18717;48.034;11.186;2023-03-13T00:02:09;8.13;;;7.57;;
32228;SDS011;18717;48.034;11.186;2023-03-13T00:04:37;7.88;;;7.32;;
32228;SDS011;18717;48.034;11.186;2023-03-13T00:07:05;8.73;;;7.93;;
32228;SDS011;18717;48.034;11.186;2023-03-13T00:09:33;7.80;;;7.15;;
32228;SDS011;18717;48.034;11.186;2023-03-13T00:12:00;9.10;;;8.38;;
32228;SDS011;18717;48.034;11.186;2023-03-13T00:14:28;7.60;;;7.10;;
32228;SDS011;18717;48.034;11.186;2023-03-13T00:16:58;8.25;;;7.68;;
32228;SDS011;18717;48.034;11.186;2023-03-13T00:19:29;9.00;;;8.43;;
32228;SDS011;18717;48.034;11.186;2023-03-13T00:21:57;7.70;;;7.30;;
32228;SDS011;18717;48.034;11.186;2023-03-13T00:24:25;8.18;;;7.40;;
32228;SDS011;18717;48.034;11.186;2023-03-13T00:26:53;8.50;;;8.00;;
32228;SDS011;18717;48.034;11.186;2023-03-13T00:29:21;8.40;;;7.75;;
32228;SDS011;18717;48.034;11.186;2023-03-13T00:31:49;8.70;;;8.20;;
32228;SDS011;18717;48.034;11.186;2023-03-13T00:34:17;9.18;;;8.40;;
32228;SDS011;18717;48.034;11.186;2023-03-13T00:36:46;8.45;;;7.95;;
32228;SDS011;18717;48.034;11.186;2023-03-13T00:39:13;7.60;;;7.22;;
32228;SDS011;18717;48.034;11.186;2023-03-13T00:41:41;7.95;;;7.35;;
32228;SDS011;18717;48.034;11.186;2023-03-13T00:44:09;8.10;;;7.53;;
32228;SDS011;18717;48.034;11.186;2023-03-13T00:46:37;7.57;;;7.18;;
32228;SDS011;18717;48.034;11.186;2023-03-13T00:49:04;8.38;;;7.75;;
32228;SDS011;18717;48.034;11.186;2023-03-13T00:51:32;8.73;;;8.07;;
32228;SDS011;18717;48.034;11.186;2023-03-13T00:54:02;8.27;;;7.85;;
32228;SDS011;18717;48.034;11.186;2023-03-13T00:56:30;7.57;;;7.07;;
32228;SDS011;18717;48.034;11.186;2023-03-13T00:58:58;8.05;;;7.60;;
32228;SDS011;18717;48.034;11.186;2023-03-13T01:01:26;8.55;;;7.93;;
32228;SDS011;18717;48.034;11.186;2023-03-13T01:03:56;8.15;;;7.40;;
32228;SDS011;18717;48.034;11.186;2023-03-13T01:06:26;8.27;;;7.57;;
32228;SDS011;18717;48.034;11.186;2023-03-13T01:08:55;8.13;;;7.60;;
32228;SDS011;18717;48.034;11.186;2023-03-13T01:11:25;8.30;;;7.90;;
32228;SDS011;18717;48.034;11.186;2023-03-13T01:13:54;7.63;;;7.22;;
32228;SDS011;18717;48.034;11.186;2023-03-13T01:16:23;8.48;;;7.97;;
32228;SDS011;18717;48.034;11.186;2023-03-13T01:18:52;8.48;;;7.65;;
32228;SDS011;18717;48.034;11.186;2023-03-13T01:21:21;8.18;;;7.65;;
32228;SDS011;18717;48.034;11.186;2023-03-13T01:23:50;7.70;;;7.15;;
32228;SDS011;18717;48.034;11.186;2023-03-13T01:26:18;7.68;;;7.18;;
32228;SDS011;18717;48.034;11.186;2023-03-13T01:28:48;7.32;;;6.82;;
32228;SDS011;18717;48.034;11.186;2023-03-13T01:31:17;7.97;;;7.38;;
32228;SDS011;18717;48.034;11.186;2023-03-13T01:33:46;7.45;;;6.97;;
32228;SDS011;18717;48.034;11.186;2023-03-13T01:36:15;8.05;;;7.40;;
32228;SDS011;18717;48.034;11.186;2023-03-13T01:38:43;7.20;;;6.70;;
32228;SDS011;18717;48.034;11.186;2023-03-13T01:41:14;7.15;;;6.63;;
32228;SDS011;18717;48.034;11.186;2023-03-13T01:43:42;6.97;;;6.32;;
32228;SDS011;18717;48.034;11.186;2023-03-13T01:46:12;6.60;;;6.20;;
32228;SDS011;18717;48.034;11.186;2023-03-13T01:48:43;11.87;;;6.80;;
32228;SDS011;18717;48.034;11.186;2023-03-13T01:51:14;7.10;;;6.60;;
32228;SDS011;18717;48.034;11.186;2023-03-13T01:53:45;5.93;;;5.40;;
32228;SDS011;18717;48.034;11.186;2023-03-13T01:56:14;7.05;;;6.72;;
32228;SDS011;18717;48.034;11.186;2023-03-13T01:58:44;8.35;;;7.78;;
32228;SDS011;18717;48.034;11.186;2023-03-13T02:01:15;6.82;;;6.53;;
32228;SDS011;18717;48.034;11.186;2023-03-13T02:03:43;6.45;;;6.15;;
32228;SDS011;18717;48.034;11.186;2023-03-13T02:06:12;7.15;;;6.75;;
32228;SDS011;18717;48.034;11.186;2023-03-13T02:08:41;6.97;;;6.57;;
32228;SDS011;18717;48.034;11.186;2023-03-13T02:11:12;6.85;;;6.45;;
32228;SDS011;18717;48.034;11.186;2023-03-13T02:13:45;7.57;;;7.10;;
32228;SDS011;18717;48.034;11.186;2023-03-13T02:16:15;7.28;;;6.90;;
32228;SDS011;18717;48.034;11.186;2023-03-13T02:18:43;7.47;;;6.80;;
32228;SDS011;18717;48.034;11.186;2023-03-13T02:21:13;6.60;;;6.30;;
32228;SDS011;18717;48.034;11.186;2023-03-13T02:23:46;7.13;;;6.50;;
32228;SDS011;18717;48.034;11.186;2023-03-13T02:26:19;7.50;;;7.00;;
32228;SDS011;18717;48.034;11.186;2023-03-13T02:28:47;7.60;;;6.97;;
32228;SDS011;18717;48.034;11.186;2023-03-13T02:31:15;7.47;;;7.18;;
32228;SDS011;18717;48.034;11.186;2023-03-13T02:33:43;7.10;;;6.70;;
32228;SDS011;18717;48.034;11.186;2023-03-13T02:36:11;7.22;;;6.82;;
32228;SDS011;18717;48.034;11.186;2023-03-13T02:38:41;7.35;;;6.93;;
32228;SDS011;18717;48.034;11.186;2023-03-13T02:41:12;7.28;;;6.70;;
32228;SDS011;18717;48.034;11.186;2023-03-13T02:43:41;6.95;;;6.65;;
32228;SDS011;18717;48.034;11.186;2023-03-13T02:46:10;6.47;;;6.18;;
32228;SDS011;18717;48.034;11.186;2023-03-13T02:48:39;7.10;;;6.72;;
32228;SDS011;18717;48.034;11.186;2023-03-13T02:51:10;6.88;;;6.55;;
32228;SDS011;18717;48.034;11.186;2023-03-13T02:53:42;6.65;;;6.35;;
32228;SDS011;18717;48.034;11.186;2023-03-13T02:56:10;7.20;;;6.80;;
32228;SDS011;18717;48.034;11.186;2023-03-13T02:58:39;6.43;;;6.13;;
32228;SDS011;18717;48.034;11.186;2023-03-13T03:01:17;6.40;;;6.10;;
32228;SDS011;18717;48.034;11.186;2023-03-13T03:03:44;6.70;;;6.30;;
32228;SDS011;18717;48.034;11.186;2023-03-13T03:06:12;7.10;;;6.70;;
32228;SDS011;18717;48.034;11.186;2023-03-13T03:08:40;7.45;;;6.88;;
32228;SDS011;18717;48.034;11.186;2023-03-13T03:11:09;7.60;;;7.30;;
32228;SDS011;18717;48.034;11.186;2023-03-13T03:13:37;7.15;;;6.65;;
32228;SDS011;18717;48.034;11.186;2023-03-13T03:16:05;7.43;;;6.90;;
32228;SDS011;18717;48.034;11.186;2023-03-13T03:18:35;7.63;;;7.07;;
32228;SDS011;18717;48.034;11.186;2023-03-13T03:21:03;6.70;;;6.30;;
32228;SDS011;18717;48.034;11.186;2023-03-13T03:23:31;7.57;;;7.18;;
32228;SDS011;18717;48.034;11.186;2023-03-13T03:26:00;7.80;;;7.25;;
32228;SDS011;18717;48.034;11.186;2023-03-13T03:28:28;7.20;;;6.65;;
32228;SDS011;18717;48.034;11.186;2023-03-13T03:30:55;7.28;;;6.78;;
32228;SDS011;18717;48.034;11.186;2023-03-13T03:33:23;7.00;;;6.60;;
32228;SDS011;18717;48.034;11.186;2023-03-13T03:35:57;7.38;;;6.80;;
32228;SDS011;18717;48.034;11.186;2023-03-13T03:38:25;6.72;;;6.43;;
32228;SDS011;18717;48.034;11.186;2023-03-13T03:40:53;6.80;;;6.50;;
32228;SDS011;18717;48.034;11.186;2023-03-13T03:43:21;7.07;;;6.68;;
32228;SDS011;18717;48.034;11.186;2023-03-13T03:45:50;6.78;;;6.38;;
32228;SDS011;18717;48.034;11.186;2023-03-13T03:48:17;6.85;;;6.38;;
32228;SDS011;18717;48.034;11.186;2023-03-13T03:50:45;7.30;;;6.90;;
32228;SDS011;18717;48.034;11.186;2023-03-13T03:53:14;7.15;;;6.85;;
32228;SDS011;18717;48.034;11.186;2023-03-13T03:55:42;7.43;;;6.80;;
32228;SDS011;18717;48.034;11.186;2023-03-13T03:58:10;7.53;;;7.10;;
32228;SDS011;18717;48.034;11.186;2023-03-13T04:00:38;6.65;;;6.35;;
32228;SDS011;18717;48.034;11.186;2023-03-13T04:03:06;7.65;;;7.10;;
32228;SDS011;18717;48.034;11.186;2023-03-13T04:05:34;6.90;;;6.50;;
32228;SDS011;18717;48.034;11.186;2023-03-13T04:08:01;6.82;;;6.43;;
32228;SDS011;18717;48.034;11.186;2023-03-13T04:10:30;7.00;;;6.60;;
32228;SDS011;18717;48.034;11.186;2023-03-13T04:12:58;7.25;;;6.75;;
32228;SDS011;18717;48.034;11.186;2023-03-13T04:15:26;7.70;;;7.20;;
32228;SDS011;18717;48.034;11.186;2023-03-13T04:17:54;7.28;;;6.88;;
32228;SDS011;18717;48.034;11.186;2023-03-13T04:20:21;7.35;;;6.85;;
32228;SDS011;18717;48.034;11.186;2023-03-13T04:22:49;7.00;;;6.50;;
32228;SDS011;18717;48.034;11.186;2023-03-13T04:25:17;6.63;;;6.20;;
32228;SDS011;18717;48.034;11.186;2023-03-13T04:27:46;6.28;;;5.97;;
32228;SDS011;18717;48.034;11.186;2023-03-13T04:30:13;6.60;;;6.25;;
32228;SDS011;18717;48.034;11.186;2023-03-13T04:32:44;6.53;;;6.18;;
32228;SDS011;18717;48.034;11.186;2023-03-13T04:35:11;7.18;;;6.85;;
32228;SDS011;18717;48.034;11.186;2023-03-13T04:37:39;7.00;;;6.70;;
32228;SDS011;18717;48.034;11.186;2023-03-13T04:40:08;7.32;;;6.90;;
32228;SDS011;18717;48.034;11.186;2023-03-13T04:42:37;7.28;;;6.88;;
32228;SDS011;18717;48.034;11.186;2023-03-13T04:45:07;7.03;;;6.63;;
32228;SDS011;18717;48.034;11.186;2023-03-13T04:50:05;6.68;;;6.38;;
32228;SDS011;18717;48.034;11.186;2023-03-13T04:52:33;6.50;;;6.20;;
32228;SDS011;18717;48.034;11.186;2023-03-13T04:55:01;6.88;;;6.53;;
32228;SDS011;18717;48.034;11.186;2023-03-13T04:57:28;6.95;;;6.63;;
32228;SDS011;18717;48.034;11.186;2023-03-13T04:59:56;7.15;;;6.72;;
32228;SDS011;18717;48.034;11.186;2023-03-13T05:02:25;7.07;;;6.70;;
32228;SDS011;18717;48.034;11.186;2023-03-13T05:04:53;6.32;;;6.03;;
32228;SDS011;18717;48.034;11.186;2023-03-13T05:07:20;7.00;;;6.68;;
32228;SDS011;18717;48.034;11.186;2023-03-13T05:09:48;7.38;;;6.88;;
32228;SDS011;18717;48.034;11.186;2023-03-13T05:12:16;7.30;;;6.78;;
32228;SDS011;18717;48.034;11.186;2023-03-13T05:14:43;6.60;;;6.20;;
32228;SDS011;18717;48.034;11.186;2023-03-13T05:17:11;8.32;;;6.75;;
32228;SDS011;18717;48.034;11.186;2023-03-13T05:19:41;7.45;;;6.90;;
32228;SDS011;18717;48.034;11.186;2023-03-13T05:22:08;6.68;;;6.28;;
32228;SDS011;18717;48.034;11.186;2023-03-13T05:24:36;6.53;;;6.13;;
32228;SDS011;18717;48.034;11.186;2023-03-13T05:27:07;11.50;;;6.28;;
32228;SDS011;18717;48.034;11.186;2023-03-13T05:29:34;6.45;;;6.07;;
32228;SDS011;18717;48.034;11.186;2023-03-13T05:32:02;6.80;;;6.50;;
32228;SDS011;18717;48.034;11.186;2023-03-13T05:34:30;6.78;;;6.25;;
32228;SDS011;18717;48.034;11.186;2023-03-13T05:36:59;6.60;;;6.30;;
32228;SDS011;18717;48.034;11.186;2023-03-13T05:39:27;6.13;;;5.72;;
32228;SDS011;18717;48.034;11.186;2023-03-13T05:41:54;6.53;;;6.13;;
32228;SDS011;18717;48.034;11.186;2023-03-13T05:44:22;6.60;;;6.22;;
32228;SDS011;18717;48.034;11.186;2023-03-13T05:46:49;7.50;;;7.10;;
32228;SDS011;18717;48.034;11.186;2023-03-13T05:49:17;7.40;;;6.93;;
32228;SDS011;18717;48.034;11.186;2023-03-13T05:51:45;6.28;;;5.97;;
32228;SDS011;18717;48.034;11.186;2023-03-13T05:54:14;6.90;;;6.60;;
32228;SDS011;18717;48.034;11.186;2023-03-13T05:56:41;7.72;;;7.20;;
32228;SDS011;18717;48.034;11.186;2023-03-13T05:59:10;11.52;;;8.75;;
32228;SDS011;18717;48.034;11.186;2023-03-13T06:01:37;6.85;;;6.55;;
32228;SDS011;18717;48.034;11.186;2023-03-13T06:04:05;7.32;;;6.82;;
32228;SDS011;18717;48.034;11.186;2023-03-13T06:06:33;6.88;;;6.57;;
32228;SDS011;18717;48.034;11.186;2023-03-13T06:09:01;6.80;;;6.50;;
32228;SDS011;18717;48.034;11.186;2023-03-13T06:11:30;7.10;;;6.70;;
32228;SDS011;18717;48.034;11.186;2023-03-13T06:13:58;7.93;;;7.43;;
32228;SDS011;18717;48.034;11.186;2023-03-13T06:16:25;9.38;;;8.77;;
32228;SDS011;18717;48.034;11.186;2023-03-13T06:18:53;8.20;;;7.55;;
32228;SDS011;18717;48.034;11.186;2023-03-13T06:21:21;9.32;;;8.73;;
32228;SDS011;18717;48.034;11.186;2023-03-13T06:23:48;7.95;;;7.35;;
32228;SDS011;18717;48.034;11.186;2023-03-13T06:26:16;7.82;;;7.35;;
32228;SDS011;18717;48.034;11.186;2023-03-13T06:28:45;7.78;;;7.28;;
32228;SDS011;18717;48.034;11.186;2023-03-13T06:31:13;7.38;;;6.97;;
32228;SDS011;18717;48.034;11.186;2023-03-13T06:33:40;7.53;;;7.22;;
32228;SDS011;18717;48.034;11.186;2023-03-13T06:36:08;7.57;;;7.28;;
32228;SDS011;18717;48.034;11.186;2023-03-13T06:38:36;7.72;;;7.22;;
32228;SDS011;18717;48.034;11.186;2023-03-13T06:41:04;7.65;;;7.15;;
32228;SDS011;18717;48.034;11.186;2023-03-13T06:43:31;7.55;;;7.22;;
32228;SDS011;18717;48.034;11.186;2023-03-13T06:46:03;9.98;;;9.18;;
32228;SDS011;18717;48.034;11.186;2023-03-13T06:48:31;8.80;;;8.30;;
32228;SDS011;18717;48.034;11.186;2023-03-13T06:50:59;7.72;;;7.25;;
32228;SDS011;18717;48.034;11.186;2023-03-13T06:53:26;8.15;;;7.63;;
32228;SDS011;18717;48.034;11.186;2023-03-13T06:55:54;8.52;;;8.02;;
32228;SDS011;18717;48.034;11.186;2023-03-13T06:58:22;13.65;;;9.25;;
32228;SDS011;18717;48.034;11.186;2023-03-13T07:00:57;9.15;;;8.50;;
32228;SDS011;18717;48.034;11.186;2023-03-13T07:03:27;9.15;;;8.45;;
32228;SDS011;18717;48.034;11.186;2023-03-13T07:05:55;8.13;;;7.45;;
32228;SDS011;18717;48.034;11.186;2023-03-13T07:08:23;8.32;;;7.72;;
32228;SDS011;18717;48.034;11.186;2023-03-13T07:10:51;8.27;;;7.65;;
32228;SDS011;18717;48.034;11.186;2023-03-13T07:13:19;7.97;;;7.43;;
32228;SDS011;18717;48.034;11.186;2023-03-13T07:15:47;7.85;;;7.35;;
32228;SDS011;18717;48.034;11.186;2023-03-13T07:18:15;6.90;;;6.57;;
32228;SDS011;18717;48.034;11.186;2023-03-13T07:20:50;7.43;;;7.13;;
32228;SDS011;18717;48.034;11.186;2023-03-13T07:23:18;7.25;;;6.95;;
32228;SDS011;18717;48.034;11.186;2023-03-13T07:25:51;7.63;;;7.32;;
32228;SDS011;18717;48.034;11.186;2023-03-13T07:28:19;7.70;;;7.20;;
32228;SDS011;18717;48.034;11.186;2023-03-13T07:30:47;7.55;;;7.22;;
32228;SDS011;18717;48.034;11.186;2023-03-13T07:33:15;7.40;;;7.10;;
32228;SDS011;18717;48.034;11.186;2023-03-13T07:35:47;7.70;;;7.30;;
32228;SDS011;18717;48.034;11.186;2023-03-13T07:38:15;7.55;;;7.25;;
32228;SDS011;18717;48.034;11.186;2023-03-13T07:40:47;8.07;;;7.57;;
32228;SDS011;18717;48.034;11.186;2023-03-13T07:43:16;8.00;;;7.47;;
32228;SDS011;18717;48.034;11.186;2023-03-13T07:45:50;7.90;;;7.28;;
32228;SDS011;18717;48.034;11.186;2023-03-13T07:48:19;8.80;;;8.25;;
32228;SDS011;18717;48.034;11.186;2023-03-13T07:50:49;8.55;;;7.53;;
32228;SDS011;18717;48.034;11.186;2023-03-13T07:53:16;7.88;;;7.47;;
32228;SDS011;18717;48.034;11.186;2023-03-13T07:55:53;9.05;;;8.63;;
32228;SDS011;18717;48.034;11.186;2023-03-13T07:58:22;8.50;;;8.05;;
32228;SDS011;18717;48.034;11.186;2023-03-13T08:00:50;8.82;;;8.18;;
32228;SDS011;18717;48.034;11.186;2023-03-13T08:03:18;10.02;;;9.20;;
32228;SDS011;18717;48.034;11.186;2023-03-13T08:05:46;9.32;;;8.63;;
32228;SDS011;18717;48.034;11.186;2023-03-13T08:08:15;14.27;;;10.10;;
32228;SDS011;18717;48.034;11.186;2023-03-13T08:10:42;9.77;;;8.98;;
32228;SDS011;18717;48.034;11.186;2023-03-13T08:13:10;8.65;;;8.25;;
32228;SDS011;18717;48.034;11.186;2023-03-13T08:15:38;9.50;;;8.90;;
32228;SDS011;18717;48.034;11.186;2023-03-13T08:18:05;8.10;;;7.65;;
32228;SDS011;18717;48.034;11.186;2023-03-13T08:20:33;8.68;;;8.27;;
32228;SDS011;18717;48.034;11.186;2023-03-13T08:23:01;9.68;;;8.98;;
32228;SDS011;18717;48.034;11.186;2023-03-13T08:25:30;8.27;;;7.78;;
32228;SDS011;18717;48.034;11.186;2023-03-13T08:27:58;8.70;;;8.00;;
32228;SDS011;18717;48.034;11.186;2023-03-13T08:30:27;8.77;;;8.38;;
32228;SDS011;18717;48.034;11.186;2023-03-13T08:32:55;8.25;;;7.85;;
32228;SDS011;18717;48.034;11.186;2023-03-13T08:35:23;9.25;;;8.48;;
32228;SDS011;18717;48.034;11.186;2023-03-13T08:37:51;8.70;;;7.90;;
32228;SDS011;18717;48.034;11.186;2023-03-13T08:40:18;8.43;;;8.02;;
32228;SDS011;18717;48.034;11.186;2023-03-13T08:42:47;9.23;;;8.73;;
32228;SDS011;18717;48.034;11.186;2023-03-13T08:45:15;8.02;;;7.72;;
32228;SDS011;18717;48.034;11.186;2023-03-13T08:47:42;9.45;;;8.85;;
32228;SDS011;18717;48.034;11.186;2023-03-13T08:50:10;8.60;;;8.10;;
32228;SDS011;18717;48.034;11.186;2023-03-13T08:52:38;8.52;;;8.13;;
32228;SDS011;18717;48.034;11.186;2023-03-13T08:55:06;9.55;;;9.02;;
32228;SDS011;18717;48.034;11.186;2023-03-13T08:57:34;9.50;;;8.88;;
32228;SDS011;18717;48.034;11.186;2023-03-13T09:00:04;8.68;;;8.27;;
32228;SDS011;18717;48.034;11.186;2023-03-13T09:02:33;8.15;;;7.85;;
32228;SDS011;18717;48.034;11.186;2023-03-13T09:05:00;8.30;;;7.90;;
32228;SDS011;18717;48.034;11.186;2023-03-13T09:07:28;8.88;;;8.38;;
32228;SDS011;18717;48.034;11.186;2023-03-13T09:09:56;9.13;;;8.63;;
32228;SDS011;18717;48.034;11.186;2023-03-13T09:12:24;8.80;;;8.50;;
32228;SDS011;18717;48.034;11.186;2023-03-13T09:14:56;9.13;;;8.52;;
32228;SDS011;18717;48.034;11.186;2023-03-13T09:17:25;8.30;;;8.00;;
32228;SDS011;18717;48.034;11.186;2023-03-13T09:19:53;8.93;;;8.52;;
32228;SDS011;18717;48.034;11.186;2023-03-13T09:22:26;8.93;;;8.60;;
32228;SDS011;18717;48.034;11.186;2023-03-13T09:24:53;8.95;;;8.60;;
32228;SDS011;18717;48.034;11.186;2023-03-13T09:27:21;9.50;;;8.98;;
32228;SDS011;18717;48.034;11.186;2023-03-13T09:29:49;8.90;;;8.50;;
32228;SDS011;18717;48.034;11.186;2023-03-13T09:32:17;9.02;;;8.57;;
32228;SDS011;18717;48.034;11.186;2023-03-13T09:34:47;9.23;;;8.73;;
32228;SDS011;18717;48.034;11.186;2023-03-13T09:37:15;9.27;;;8.85;;
32228;SDS011;18717;48.034;11.186;2023-03-13T09:39:42;9.57;;;9.05;;
32228;SDS011;18717;48.034;11.186;2023-03-13T09:42:12;9.10;;;8.70;;
32228;SDS011;18717;48.034;11.186;2023-03-13T09:44:42;10.18;;;9.77;;
32228;SDS011;18717;48.034;11.186;2023-03-13T09:47:12;9.45;;;8.85;;
32228;SDS011;18717;48.034;11.186;2023-03-13T09:49:44;9.38;;;8.98;;
32228;SDS011;18717;48.034;11.186;2023-03-13T09:52:17;9.27;;;8.88;;
32228;SDS011;18717;48.034;11.186;2023-03-13T09:54:47;10.50;;;10.10;;
32228;SDS011;18717;48.034;11.186;2023-03-13T09:57:18;10.82;;;10.18;;
32228;SDS011;18717;48.034;11.186;2023-03-13T09:59:51;9.90;;;9.45;;
32228;SDS011;18717;48.034;11.186;2023-03-13T10:02:24;10.02;;;9.63;;
32228;SDS011;18717;48.034;11.186;2023-03-13T10:04:59;9.95;;;9.43;;
32228;SDS011;18717;48.034;11.186;2023-03-13T10:07:30;10.02;;;9.57;;
32228;SDS011;18717;48.034;11.186;2023-03-13T10:09:58;9.63;;;9.05;;
32228;SDS011;18717;48.034;11.186;2023-03-13T10:12:27;9.65;;;9.25;;
32228;SDS011;18717;48.034;11.186;2023-03-13T10:15:02;10.05;;;9.55;;
32228;SDS011;18717;48.034;11.186;2023-03-13T10:17:43;10.20;;;9.57;;
32228;SDS011;18717;48.034;11.186;2023-03-13T10:20:20;9.95;;;9.55;;
32228;SDS011;18717;48.034;11.186;2023-03-13T10:22:50;10.43;;;9.93;;
32228;SDS011;18717;48.034;11.186;2023-03-13T10:25:22;11.25;;;10.55;;
32228;SDS011;18717;48.034;11.186;2023-03-13T10:27:53;11.05;;;10.10;;
32228;SDS011;18717;48.034;11.186;2023-03-13T10:30:22;10.63;;;9.95;;
32228;SDS011;18717;48.034;11.186;2023-03-13T10:32:56;10.32;;;9.88;;
32228;SDS011;18717;48.034;11.186;2023-03-13T10:35:31;9.95;;;9.52;;
32228;SDS011;18717;48.034;11.186;2023-03-13T10:38:04;11.13;;;10.50;;
32228;SDS011;18717;48.034;11.186;2023-03-13T10:40:32;10.10;;;9.70;;
32228;SDS011;18717;48.034;11.186;2023-03-13T10:43:01;10.07;;;9.63;;
32228;SDS011;18717;48.034;11.186;2023-03-13T10:45:31;10.40;;;10.00;;
32228;SDS011;18717;48.034;11.186;2023-03-13T10:48:02;11.00;;;10.60;;
32228;SDS011;18717;48.034;11.186;2023-03-13T10:50:40;10.40;;;10.00;;
32228;SDS011;18717;48.034;11.186;2023-03-13T10:53:22;10.60;;;10.10;;
32228;SDS011;18717;48.034;11.186;2023-03-13T10:55:51;11.35;;;10.75;;
32228;SDS011;18717;48.034;11.186;2023-03-13T10:58:22;10.48;;;9.82;;
32228;SDS011;18717;48.034;11.186;2023-03-13T11:00:51;10.55;;;9.95;;
32228;SDS011;18717;48.034;11.186;2023-03-13T11:03:25;10.38;;;9.98;;
32228;SDS011;18717;48.034;11.186;2023-03-13T11:06:00;10.60;;;10.10;;
32228;SDS011;18717;48.034;11.186;2023-03-13T11:08:32;10.60;;;10.20;;
32228;SDS011;18717;48.034;11.186;2023-03-13T11:11:01;11.30;;;10.48;;
32228;SDS011;18717;48.034;11.186;2023-03-13T11:13:40;11.68;;;10.98;;
32228;SDS011;18717;48.034;11.186;2023-03-13T11:16:11;11.40;;;10.90;;
32228;SDS011;18717;48.034;11.186;2023-03-13T11:18:50;11.60;;;11.10;;
32228;SDS011;18717;48.034;11.186;2023-03-13T11:23:57;11.30;;;10.80;;
32228;SDS011;18717;48.034;11.186;2023-03-13T11:26:30;11.18;;;10.77;;
32228;SDS011;18717;48.034;11.186;2023-03-13T11:29:02;11.02;;;10.63;;
32228;SDS011;18717;48.034;11.186;2023-03-13T11:31:33;11.63;;;11.13;;
32228;SDS011;18717;48.034;11.186;2023-03-13T11:34:04;11.15;;;10.65;;
32228;SDS011;18717;48.034;11.186;2023-03-13T11:39:09;11.02;;;10.52;;
32228;SDS011;18717;48.034;11.186;2023-03-13T11:41:57;11.77;;;11.18;;
32228;SDS011;18717;48.034;11.186;2023-03-13T11:44:29;10.55;;;10.15;;
32228;SDS011;18717;48.034;11.186;2023-03-13T11:49:35;12.07;;;11.43;;
32228;SDS011;18717;48.034;11.186;2023-03-13T11:52:10;12.00;;;11.45;;
32228;SDS011;18717;48.034;11.186;2023-03-13T11:54:49;12.00;;;11.50;;
32228;SDS011;18717;48.034;11.186;2023-03-13T11:57:23;11.95;;;11.40;;
32228;SDS011;18717;48.034;11.186;2023-03-13T12:00:02;11.82;;;11.25;;
32228;SDS011;18717;48.034;11.186;2023-03-13T12:02:37;12.05;;;11.23;;
32228;SDS011;18717;48.034;11.186;2023-03-13T12:05:07;11.73;;;11.23;;
32228;SDS011;18717;48.034;11.186;2023-03-13T12:07:38;11.63;;;11.02;;
32228;SDS011;18717;48.034;11.186;2023-03-13T12:10:08;11.93;;;11.23;;
32228;SDS011;18717;48.034;11.186;2023-03-13T12:12:39;13.05;;;12.35;;
32228;SDS011;18717;48.034;11.186;2023-03-13T12:15:15;12.50;;;11.68;;
32228;SDS011;18717;48.034;11.186;2023-03-13T12:17:47;12.30;;;11.80;;
32228;SDS011;18717;48.034;11.186;2023-03-13T12:20:18;12.93;;;12.15;;
32228;SDS011;18717;48.034;11.186;2023-03-13T12:22:51;13.23;;;12.25;;
32228;SDS011;18717;48.034;11.186;2023-03-13T12:25:22;11.32;;;10.90;;
32228;SDS011;18717;48.034;11.186;2023-03-13T12:27:52;13.00;;;12.02;;
32228;SDS011;18717;48.034;11.186;2023-03-13T12:30:24;12.52;;;12.02;;
32228;SDS011;18717;48.034;11.186;2023-03-13T12:32:57;12.05;;;11.45;;
32228;SDS011;18717;48.034;11.186;2023-03-13T12:35:28;12.60;;;11.80;;
32228;SDS011;18717;48.034;11.186;2023-03-13T12:38:00;11.63;;;10.98;;
32228;SDS011;18717;48.034;11.186;2023-03-13T12:40:32;12.32;;;11.63;;
32228;SDS011;18717;48.034;11.186;2023-03-13T12:43:03;12.13;;;11.52;;
32228;SDS011;18717;48.034;11.186;2023-03-13T12:45:32;12.57;;;11.85;;
32228;SDS011;18717;48.034;11.186;2023-03-13T12:48:07;12.35;;;11.57;;
32228;SDS011;18717;48.034;11.186;2023-03-13T12:50:47;12.07;;;11.38;;
32228;SDS011;18717;48.034;11.186;2023-03-13T12:53:29;12.63;;;11.93;;
32228;SDS011;18717;48.034;11.186;2023-03-13T12:56:11;12.13;;;11.52;;
32228;SDS011;18717;48.034;11.186;2023-03-13T12:58:45;12.20;;;11.50;;
32228;SDS011;18717;48.034;11.186;2023-03-13T13:01:16;12.32;;;11.70;;
32228;SDS011;18717;48.034;11.186;2023-03-13T13:03:50;11.80;;;11.07;;
32228;SDS011;18717;48.034;11.186;2023-03-13T13:06:19;12.70;;;12.10;;
32228;SDS011;18717;48.034;11.186;2023-03-13T13:09:01;12.07;;;11.48;;
32228;SDS011;18717;48.034;11.186;2023-03-13T13:20:41;11.80;;;11.20;;
32228;SDS011;18717;48.034;11.186;2023-03-13T13:32:29;12.35;;;11.75;;
32228;SDS011;18717;48.034;11.186;2023-03-13T13:35:02;12.52;;;11.98;;
32228;SDS011;18717;48.034;11.186;2023-03-13T13:37:32;12.07;;;11.48;;
32228;SDS011;18717;48.034;11.186;2023-03-13T13:40:16;12.10;;;11.57;;
32228;SDS011;18717;48.034;11.186;2023-03-13T13:42:46;12.00;;;11.30;;
32228;SDS011;18717;48.034;11.186;2023-03-13T13:45:23;12.13;;;11.63;;
32228;SDS011;18717;48.034;11.186;2023-03-13T13:53:55;12.55;;;11.82;;
32228;SDS011;18717;48.034;11.186;2023-03-13T13:56:29;12.50;;;11.80;;
32228;SDS011;18717;48.034;11.186;2023-03-13T13:59:00;11.90;;;11.40;;
32228;SDS011;18717;48.034;11.186;2023-03-13T14:01:31;11.52;;;11.02;;
32228;SDS011;18717;48.034;11.186;2023-03-13T14:04:03;12.88;;;12.18;;
32228;SDS011;18717;48.034;11.186;2023-03-13T14:06:41;11.65;;;11.15;;
32228;SDS011;18717;48.034;11.186;2023-03-13T14:09:13;12.77;;;12.02;;
32228;SDS011;18717;48.034;11.186;2023-03-13T14:11:52;13.10;;;12.32;;
32228;SDS011;18717;48.034;11.186;2023-03-13T14:14:21;12.23;;;11.63;;
32228;SDS011;18717;48.034;11.186;2023-03-13T14:16:49;12.27;;;11.77;;
32228;SDS011;18717;48.034;11.186;2023-03-13T14:19:22;13.15;;;12.45;;
32228;SDS011;18717;48.034;11.186;2023-03-13T14:21:57;12.35;;;11.75;;
32228;SDS011;18717;48.034;11.186;2023-03-13T14:24:26;12.50;;;11.75;;
32228;SDS011;18717;48.034;11.186;2023-03-13T14:26:53;12.32;;;11.63;;
32228;SDS011;18717;48.034;11.186;2023-03-13T14:29:21;12.00;;;11.50;;
32228;SDS011;18717;48.034;11.186;2023-03-13T14:31:52;11.77;;;11.27;;
32228;SDS011;18717;48.034;11.186;2023-03-13T14:34:20;12.23;;;11.73;;
32228;SDS011;18717;48.034;11.186;2023-03-13T14:36:49;12.45;;;11.93;;
32228;SDS011;18717;48.034;11.186;2023-03-13T14:39:36;11.38;;;10.77;;
32228;SDS011;18717;48.034;11.186;2023-03-13T14:42:05;12.00;;;11.23;;
32228;SDS011;18717;48.034;11.186;2023-03-13T14:44:36;12.70;;;12.20;;
32228;SDS011;18717;48.034;11.186;2023-03-13T14:47:06;11.45;;;10.95;;
32228;SDS011;18717;48.034;11.186;2023-03-13T14:49:34;12.63;;;11.57;;
32228;SDS011;18717;48.034;11.186;2023-03-13T14:52:03;11.40;;;10.70;;
32228;SDS011;18717;48.034;11.186;2023-03-13T14:54:34;11.40;;;10.88;;
32228;SDS011;18717;48.034;11.186;2023-03-13T14:57:13;10.90;;;10.43;;
32228;SDS011;18717;48.034;11.186;2023-03-13T14:59:42;12.75;;;12.10;;
32228;SDS011;18717;48.034;11.186;2023-03-13T15:02:13;11.45;;;10.95;;
32228;SDS011;18717;48.034;11.186;2023-03-13T15:04:47;11.40;;;10.90;;
32228;SDS011;18717;48.034;11.186;2023-03-13T15:07:15;11.60;;;10.80;;
32228;SDS011;18717;48.034;11.186;2023-03-13T15:09:45;11.68;;;11.18;;
32228;SDS011;18717;48.034;11.186;2023-03-13T15:12:13;12.25;;;11.55;;
32228;SDS011;18717;48.034;11.186;2023-03-13T15:14:43;12.65;;;11.57;;
32228;SDS011;18717;48.034;11.186;2023-03-13T15:17:12;11.77;;;11.27;;